Time;durP1;ratioP1;P1;durP2;ratioP2;P2;SDS_P1;SDS_P2;PMS_P1;PMS_P2;Temp;Humidity;BMP_temperature;BMP_pressure;BME280_temperature;BME280_humidity;BME280_pressure;Samples;Min_cycle;Max_cycle;Signal;HPM_P1;HPM_P2
2022/05/28 00:01:37;;;;;;;17.08;5.63;;;15.40;99.90;;;15.62;70.36;102135.44;4844223;29;20560;-66
2022/05/28 00:04:08;;;;;;;15.57;5.40;;;15.40;99.90;;;15.64;70.40;102131.00;4844054;29;20041;-66
2022/05/28 00:06:37;;;;;;;15.32;6.10;;;15.30;99.90;;;15.66;70.72;102125.66;4845010;29;20046;-66
2022/05/28 00:09:06;;;;;;;12.70;5.60;;;15.30;99.90;;;15.64;71.08;102122.97;4844012;29;20133;-66
2022/05/28 00:11:37;;;;;;;14.43;5.43;;;15.40;99.90;;;15.55;71.03;102115.03;4843992;29;20081;-66
2022/05/28 00:14:07;;;;;;;13.77;5.30;;;15.30;99.90;;;15.69;70.40;102105.19;4844212;29;20170;-66
2022/05/28 00:16:36;;;;;;;17.58;5.78;;;15.40;99.90;;;15.57;70.50;102139.03;4843850;29;20082;-66
2022/05/28 00:19:07;;;;;;;18.08;5.63;;;15.30;99.90;;;15.49;70.84;102109.72;4843790;29;20098;-66
2022/05/28 00:21:36;;;;;;;22.15;5.47;;;15.20;99.90;;;15.39;71.02;102111.53;4844011;29;20412;-66
2022/05/28 00:24:05;;;;;;;17.95;5.93;;;15.10;99.90;;;15.39;70.83;102113.28;4843184;29;20050;-66
2022/05/28 00:26:34;;;;;;;17.60;5.43;;;15.10;99.90;;;15.46;71.02;102109.75;4842492;29;20349;-66
2022/05/28 00:29:02;;;;;;;18.73;5.25;;;15.20;99.90;;;15.47;70.84;102113.28;4843655;29;20125;-66
2022/05/28 00:31:31;;;;;;;22.02;5.90;;;15.20;99.90;;;15.39;71.14;102102.63;4843760;29;20480;-66
2022/05/28 00:33:59;;;;;;;16.00;5.55;;;15.20;99.90;;;15.34;71.36;102113.34;4844078;29;20050;-66
2022/05/28 00:36:29;;;;;;;16.63;5.20;;;15.10;99.90;;;15.26;70.96;102099.13;4843354;29;20050;-66
2022/05/28 00:38:57;;;;;;;19.70;5.55;;;15.20;99.90;;;15.39;71.32;102099.97;4843712;29;20132;-66
2022/05/28 00:41:25;;;;;;;15.70;5.28;;;15.20;99.90;;;15.44;71.32;102107.97;4843359;29;20076;-66
2022/05/28 00:43:54;;;;;;;18.60;5.82;;;15.10;99.90;;;15.30;71.39;102116.91;4843786;29;20407;-66
2022/05/28 00:46:26;;;;;;;16.05;4.70;;;15.10;99.90;;;15.29;71.86;102099.13;4826969;29;20217;-66
2022/05/28 00:49:00;;;;;;;17.85;5.35;;;15.00;99.90;;;15.16;72.58;102102.72;4843291;29;20407;-66
2022/05/28 00:51:34;;;;;;;18.00;5.53;;;14.90;99.90;;;15.27;72.61;102106.22;4843719;29;20077;-66
2022/05/28 00:54:06;;;;;;;22.75;6.30;;;15.00;99.90;;;15.31;72.54;102110.66;4843222;29;20077;-66
2022/05/28 00:56:34;;;;;;;19.73;5.00;;;15.00;99.90;;;15.24;73.06;102105.34;4843840;29;20073;-66
2022/05/28 00:59:03;;;;;;;19.98;5.10;;;15.00;99.90;;;15.25;73.19;102104.47;4843084;29;20077;-66
2022/05/28 01:01:35;;;;;;;20.50;5.35;;;15.00;99.90;;;15.04;73.90;102084.09;4843011;29;20058;-66
2022/05/28 01:04:15;;;;;;;17.50;5.82;;;15.00;99.90;;;15.16;73.94;102110.72;4843225;29;20054;-66
2022/05/28 01:06:51;;;;;;;21.80;5.55;;;14.90;99.90;;;15.13;74.76;102113.41;4842825;29;20061;-66
2022/05/28 01:09:27;;;;;;;21.42;5.38;;;14.90;99.90;;;15.05;74.96;102087.66;4842926;29;20050;-66
2022/05/28 01:12:07;;;;;;;21.90;5.75;;;14.90;99.90;;;15.09;75.68;102108.09;4826492;29;20061;-66
2022/05/28 01:14:44;;;;;;;19.20;5.57;;;14.80;99.90;;;15.17;75.64;102099.19;4826531;29;20050;-66
2022/05/28 01:17:19;;;;;;;21.48;5.10;;;14.90;99.90;;;15.09;75.90;102106.31;4843005;29;20074;-66
2022/05/28 01:20:03;;;;;;;26.50;5.57;;;14.80;99.90;;;15.14;75.88;102108.94;4842917;29;20132;-66
2022/05/28 01:23:00;;;;;;;23.08;6.18;;;14.90;99.90;;;15.16;76.14;102108.06;4842595;29;20065;-66
2022/05/28 01:25:44;;;;;;;19.23;5.32;;;14.80;99.90;;;15.05;76.62;102093.00;4842515;29;20136;-66
2022/05/28 01:28:18;;;;;;;21.02;6.35;;;14.90;99.90;;;14.98;76.78;102075.25;4843020;29;20492;-66
2022/05/28 01:30:48;;;;;;;18.65;5.97;;;14.80;99.90;;;15.15;77.12;102092.97;4826244;29;20061;-66
2022/05/28 01:33:18;;;;;;;33.28;6.78;;;14.80;99.90;;;15.06;77.07;102102.78;4842390;29;20152;-66
2022/05/28 01:35:47;;;;;;;23.00;6.32;;;14.80;99.90;;;15.04;77.17;102110.75;4842208;29;20061;-66
2022/05/28 01:38:18;;;;;;;19.07;5.70;;;14.80;99.90;;;15.10;77.41;102101.84;4842326;29;20164;-66
2022/05/28 01:40:48;;;;;;;26.33;6.18;;;14.80;99.90;;;14.95;77.42;102100.13;4842593;29;20054;-66
2022/05/28 01:43:19;;;;;;;23.20;5.65;;;14.70;99.90;;;15.15;77.42;102102.75;4842514;29;20050;-66
2022/05/28 01:45:49;;;;;;;22.42;5.43;;;14.80;99.90;;;15.07;77.89;102094.78;4842159;29;20056;-66
2022/05/28 01:48:20;;;;;;;24.15;5.80;;;14.90;99.90;;;15.10;77.74;102099.19;4841394;29;20370;-66
2022/05/28 01:50:52;;;;;;;21.90;6.07;;;14.80;99.90;;;15.00;78.01;102106.31;4842302;29;20596;-65
2022/05/28 01:56:11;;;;;;;24.52;6.65;;;14.70;99.90;;;14.83;78.36;102094.81;4842459;29;20089;-66
2022/05/28 01:58:42;;;;;;;26.42;6.30;;;14.60;99.90;;;14.69;79.27;102077.09;4842291;29;20132;-66
2022/05/28 02:01:11;;;;;;;23.42;6.25;;;14.50;99.90;;;14.81;79.45;102098.38;4842471;29;20536;-66
2022/05/28 02:03:46;;;;;;;27.10;6.97;;;14.50;99.90;;;14.99;79.05;102099.22;4842097;29;20054;-66
2022/05/28 02:06:14;;;;;;;25.80;6.57;;;14.60;99.90;;;14.92;79.15;102102.81;4842002;29;20136;-66
2022/05/28 02:08:46;;;;;;;19.85;5.57;;;14.60;99.90;;;15.03;79.26;102095.66;4841110;29;20050;-66
2022/05/28 02:11:17;;;;;;;;;;;14.70;99.90;;;15.12;78.13;102090.28;4842793;29;20049;-66
2022/05/28 02:13:57;;;;;;;24.50;5.80;;;14.90;99.90;;;14.98;78.42;102102.78;4841423;29;19967;-66
2022/05/28 02:16:34;;;;;;;24.73;5.80;;;14.70;99.90;;;15.13;78.66;102097.41;4841956;29;20544;-66
2022/05/28 02:19:11;;;;;;;29.70;6.28;;;14.80;99.90;;;15.01;78.65;102091.22;4841905;29;20050;-66
2022/05/28 02:21:44;;;;;;;22.80;6.20;;;14.70;99.90;;;15.08;78.12;102096.53;4825771;29;20141;-66
2022/05/28 02:24:18;;;;;;;23.25;6.32;;;14.80;99.90;;;15.32;77.50;102098.22;4841872;29;20459;-66
2022/05/28 02:26:52;;;;;;;27.90;6.25;;;15.00;99.90;;;15.21;77.06;102090.25;4841751;29;20053;-66
2022/05/28 02:29:22;;;;;;;21.70;5.30;;;15.00;99.90;;;15.36;76.97;102094.66;4842023;29;20140;-66
2022/05/28 02:31:51;;;;;;;21.38;5.57;;;15.10;99.90;;;15.27;77.37;102094.69;4842160;29;20110;-66
2022/05/28 02:34:20;;;;;;;21.30;5.70;;;15.00;99.90;;;15.48;76.47;102089.31;4842102;29;20144;-66
2022/05/28 02:36:49;;;;;;;23.20;6.47;;;15.20;99.90;;;15.38;75.92;102083.09;4841862;29;20050;-66
2022/05/28 02:39:17;;;;;;;19.77;5.43;;;15.20;99.90;;;15.45;75.71;102083.97;4841597;29;20136;-66
2022/05/28 02:41:45;;;;;;;20.67;5.55;;;15.20;99.90;;;15.39;75.32;102086.63;4841420;29;20133;-65
2022/05/28 02:44:14;;;;;;;17.23;5.22;;;15.10;99.90;;;15.16;76.23;102085.84;4841686;29;20057;-66
2022/05/28 02:46:43;;;;;;;24.02;5.57;;;15.00;99.90;;;15.09;75.56;102081.44;4841071;29;20160;-66
2022/05/28 02:49:12;;;;;;;24.05;5.57;;;14.80;99.90;;;15.30;75.39;102087.56;4841711;29;20060;-65
2022/05/28 02:51:41;;;;;;;20.42;5.68;;;14.90;99.90;;;15.26;75.42;102084.91;4841364;29;20042;-66
2022/05/28 02:54:09;;;;;;;17.23;5.10;;;14.90;99.90;;;15.22;74.88;102084.03;4841354;29;20081;-66
2022/05/28 02:56:38;;;;;;;17.98;4.95;;;14.90;99.90;;;15.20;74.68;102082.28;4841737;29;20141;-66
2022/05/28 02:59:06;;;;;;;19.38;5.55;;;14.80;99.90;;;15.13;74.84;102085.88;4841470;29;20053;-66
2022/05/28 03:01:35;;;;;;;24.20;5.05;;;14.80;99.90;;;15.05;75.04;102082.34;4841183;29;20114;-66
2022/05/28 03:04:08;;;;;;;21.17;5.35;;;14.80;99.90;;;15.15;74.86;102089.41;4841164;29;20102;-66
2022/05/28 03:06:37;;;;;;;17.20;4.88;;;14.80;99.90;;;15.10;73.96;102083.19;4841023;29;20073;-66
2022/05/28 03:09:08;;;;;;;17.67;5.53;;;14.80;99.90;;;15.29;73.01;102087.59;4841102;29;20568;-66
2022/05/28 03:11:38;;;;;;;15.45;4.63;;;14.90;99.90;;;15.28;72.13;102083.13;4841227;29;20052;-66
2022/05/28 03:14:07;;;;;;;15.20;4.70;;;15.00;99.90;;;15.04;72.20;102076.09;4841209;29;20416;-66
2022/05/28 03:16:35;;;;;;;12.20;4.47;;;14.90;99.90;;;15.15;71.86;102089.41;4841295;29;20050;-66
2022/05/28 03:19:05;;;;;;;16.33;4.95;;;14.90;99.90;;;15.03;71.92;102090.34;4841024;29;20050;-66
2022/05/28 03:21:33;;;;;;;16.40;4.78;;;14.80;99.90;;;15.17;71.80;102090.28;4840994;29;20092;-66
2022/05/28 03:24:01;;;;;;;14.40;4.53;;;14.90;99.90;;;15.14;71.02;102080.53;4840957;29;20141;-66
2022/05/28 03:26:31;;;;;;;14.48;4.63;;;15.00;99.90;;;15.14;71.12;102095.63;4839763;29;20053;-66
2022/05/28 03:28:59;;;;;;;10.23;3.83;;;14.90;99.90;;;15.31;69.94;102102.66;4840942;29;20415;-66
2022/05/28 03:31:29;;;;;;;8.23;4.13;;;15.00;99.90;;;15.37;68.91;102093.75;4841272;29;20057;-66
2022/05/28 03:33:59;;;;;;;20.90;4.95;;;15.20;99.90;;;15.23;69.32;102099.13;4840910;29;20050;-66
2022/05/28 03:36:29;;;;;;;13.90;4.20;;;15.00;99.90;;;15.34;69.09;102091.09;4840914;29;20531;-66
2022/05/28 03:38:58;;;;;;;12.73;4.65;;;15.10;99.90;;;15.15;69.50;102103.63;4841361;29;20141;-66
2022/05/28 03:41:28;;;;;;;14.68;4.43;;;15.00;99.90;;;15.27;69.64;102100.91;4840921;29;20045;-66
2022/05/28 03:43:57;;;;;;;10.68;5.13;;;15.10;99.90;;;15.25;69.57;102102.69;4841166;29;20050;-65
2022/05/28 03:46:29;;;;;;;12.85;4.43;;;15.10;99.90;;;15.35;69.11;102112.41;4840825;29;20571;-66
2022/05/28 03:49:01;;;;;;;16.42;4.90;;;15.10;99.90;;;15.34;68.91;102113.34;4840845;29;20046;-66
2022/05/28 03:51:31;;;;;;;13.60;4.35;;;15.10;99.90;;;15.16;68.58;102088.50;4841000;29;20089;-65
2022/05/28 03:54:02;;;;;;;14.40;4.78;;;15.10;99.90;;;15.27;68.32;102100.91;4839852;29;20564;-65
2022/05/28 03:56:36;;;;;;;11.48;3.70;;;15.10;99.90;;;15.32;68.11;102099.13;4841277;29;20062;-66
2022/05/28 03:59:06;;;;;;;14.18;4.25;;;15.10;99.90;;;15.43;67.28;102108.91;4844363;29;20054;-66
2022/05/28 04:01:36;;;;;;;13.10;4.22;;;15.20;99.90;;;15.32;66.75;102104.44;4843078;29;20050;-66
2022/05/28 04:04:05;;;;;;;14.03;4.77;;;15.10;99.90;;;15.40;66.58;102109.75;4844061;29;20054;-66
2022/05/28 04:06:37;;;;;;;13.32;4.13;;;15.20;99.90;;;15.33;66.88;102107.97;4843925;29;20377;-66
2022/05/28 04:09:07;;;;;;;10.63;4.03;;;15.10;99.90;;;15.06;67.17;102087.66;4827597;29;20591;-66
2022/05/28 04:11:36;;;;;;;11.27;3.80;;;15.00;99.90;;;15.30;66.60;102111.56;4844275;29;20077;-66
2022/05/28 04:14:05;;;;;;;11.60;4.70;;;15.10;99.90;;;15.27;67.01;102111.56;4843911;29;20153;-66
2022/05/28 04:16:34;;;;;;;12.45;3.95;;;15.00;99.90;;;15.33;66.86;102106.22;4843821;29;20046;-66
2022/05/28 04:19:03;;;;;;;12.27;4.75;;;15.10;99.90;;;15.29;67.12;102112.44;4843727;29;20094;-66
2022/05/28 04:21:32;;;;;;;12.02;4.15;;;15.10;99.90;;;15.38;66.77;102116.88;4843778;29;20422;-66
2022/05/28 04:24:01;;;;;;;10.27;4.15;;;15.20;99.90;;;15.39;66.03;102111.53;4843979;29;20133;-66
2022/05/28 04:26:30;;;;;;;8.70;4.05;;;15.10;99.90;;;15.46;66.29;102115.09;4843902;29;20130;-66
2022/05/28 04:28:58;;;;;;;15.40;4.10;;;15.20;99.90;;;15.50;66.22;102122.19;4843746;29;20054;-66
2022/05/28 04:31:26;;;;;;;11.25;4.47;;;15.20;99.90;;;15.61;66.57;102127.44;4843674;29;20071;-66
2022/05/28 04:33:55;;;;;;;14.60;4.25;;;15.40;99.90;;;15.64;66.36;102135.47;4843515;29;20404;-66
2022/05/28 04:36:23;;;;;;;14.20;3.70;;;15.40;99.90;;;15.46;66.46;102130.19;4843714;29;20157;-66
2022/05/28 04:38:52;;;;;;;17.23;4.07;;;15.30;99.90;;;15.57;66.22;102126.59;4843713;29;20125;-66
2022/05/28 04:41:21;;;;;;;11.32;3.80;;;15.30;99.90;;;15.70;66.31;102136.28;4843665;29;20148;-66
2022/05/28 04:43:49;;;;;;;13.52;3.88;;;15.40;99.90;;;15.66;65.02;102123.88;4843379;29;20718;-66
2022/05/28 04:46:18;;;;;;;11.38;4.22;;;15.40;99.90;;;15.75;65.14;102129.19;4843595;29;20137;-66
2022/05/28 04:48:47;;;;;;;9.48;3.85;;;15.50;99.90;;;15.60;65.05;102126.56;4843290;29;20065;-66
2022/05/28 04:51:15;;;;;;;8.52;4.03;;;15.40;99.90;;;15.69;64.90;102130.97;4827001;29;20102;-66
2022/05/28 04:53:44;;;;;;;9.18;4.45;;;15.40;99.90;;;15.69;64.51;102130.97;4843339;29;20064;-66
2022/05/28 04:56:12;;;;;;;8.82;3.85;;;15.40;99.90;;;15.81;64.44;102134.47;4843430;29;20574;-66
2022/05/28 04:58:43;;;;;;;12.05;4.10;;;15.50;99.90;;;15.86;63.99;102135.31;4842064;29;20145;-66
2022/05/28 05:01:13;;;;;;;8.25;4.35;;;15.60;99.90;;;15.91;63.25;102136.19;4843353;29;20102;-66
2022/05/28 05:03:41;;;;;;;13.38;4.57;;;15.70;99.90;;;15.81;63.63;102109.56;4843703;29;20106;-66
2022/05/28 05:06:10;;;;;;;13.18;3.92;;;15.70;99.90;;;16.03;63.54;102136.09;4843738;29;20392;-66
2022/05/28 05:08:44;;;;;;;11.77;3.80;;;15.70;99.90;;;16.20;63.11;102146.69;4842803;29;20105;-66
2022/05/28 05:11:13;;;;;;;8.38;3.70;;;15.90;99.90;;;15.97;63.07;102148.59;4843058;29;20076;-66
2022/05/28 05:13:43;;;;;;;15.57;3.95;;;15.80;99.90;;;16.10;63.51;102152.97;4843082;29;20085;-66
2022/05/28 05:16:17;;;;;;;9.27;3.57;;;15.80;99.90;;;15.87;62.59;102121.06;4843344;29;20141;-66
2022/05/28 05:18:46;;;;;;;12.00;3.72;;;15.80;99.90;;;15.94;63.18;102144.19;4843074;29;20065;-66
2022/05/28 05:21:15;;;;;;;11.35;4.07;;;15.70;99.90;;;16.10;62.50;102156.50;4843013;29;20481;-66
2022/05/28 05:23:44;;;;;;;8.98;3.58;;;15.80;99.90;;;15.81;62.85;102130.91;4843142;29;20650;-66
2022/05/28 05:26:15;;;;;;;10.75;4.35;;;15.70;99.90;;;15.84;63.11;102160.25;4827017;29;20089;-66
2022/05/28 05:28:45;;;;;;;9.48;3.80;;;15.60;99.90;;;16.10;63.19;102147.66;4842911;29;20054;-66
2022/05/28 05:31:14;;;;;;;13.50;4.37;;;15.80;99.90;;;16.09;62.68;102160.09;4842900;29;20081;-66
2022/05/28 05:33:43;;;;;;;13.48;3.78;;;15.90;99.90;;;16.09;62.25;102148.53;4842881;29;20053;-66
2022/05/28 05:36:12;;;;;;;10.75;4.35;;;15.90;99.90;;;15.98;61.88;102156.63;4842759;29;20449;-66
2022/05/28 05:38:41;;;;;;;9.40;4.15;;;15.90;99.90;;;15.87;62.25;102147.75;4842712;29;20042;-66
2022/05/28 05:41:10;;;;;;;10.38;4.00;;;15.70;99.90;;;15.99;62.06;102165.47;4842468;29;20069;-66
2022/05/28 05:43:38;;;;;;;10.73;4.28;;;15.80;99.90;;;16.03;60.46;102149.44;4842690;29;20077;-66
2022/05/28 05:46:08;;;;;;;9.82;4.00;;;15.80;99.90;;;16.07;59.31;102166.31;4842375;29;20058;-66
2022/05/28 05:48:37;;;;;;;8.35;4.30;;;15.90;99.90;;;16.03;59.90;102153.91;4842258;29;20050;-66
2022/05/28 05:51:08;;;;;;;13.10;4.30;;;15.90;99.90;;;16.28;59.92;102192.88;4842686;29;20056;-66
2022/05/28 05:53:36;;;;;;;;;;;16.00;99.90;;;16.25;59.13;102179.56;4842590;29;20046;-66
2022/05/28 05:56:06;;;;;;;11.10;3.90;;;16.10;99.90;;;16.20;58.63;102173.38;4841955;29;20019;-66
2022/05/28 05:58:35;;;;;;;9.27;4.20;;;16.10;99.90;;;16.30;58.98;102171.53;4842150;29;20051;-66
2022/05/28 06:01:05;;;;;;;14.80;4.18;;;16.10;99.90;;;16.18;59.09;102181.38;4842277;29;20081;-66
2022/05/28 06:03:34;;;;;;;10.20;4.03;;;16.00;99.90;;;16.10;58.31;102174.34;4842287;29;20149;-66
2022/05/28 06:06:06;;;;;;;10.40;4.00;;;15.90;99.90;;;15.96;57.87;102177.09;4841891;29;20327;-67
2022/05/28 06:08:34;;;;;;;13.18;4.10;;;15.80;99.90;;;16.19;58.27;102187.63;4841829;29;20069;-66
2022/05/28 06:11:02;;;;;;;8.70;4.03;;;15.90;99.90;;;16.14;57.79;102184.97;4842514;29;20349;-66
2022/05/28 06:13:31;;;;;;;11.55;4.35;;;15.90;99.90;;;16.10;58.08;102190.34;4841892;29;20146;-66
2022/05/28 06:15:59;;;;;;;10.13;4.03;;;15.90;99.90;;;15.82;59.17;102186.03;4841766;29;20495;-66
2022/05/28 06:18:27;;;;;;;7.82;4.13;;;15.70;99.90;;;15.53;58.90;102118.59;4841627;29;20120;-67
2022/05/28 06:20:59;;;;;;;14.55;4.38;;;15.70;99.90;;;15.93;59.25;102185.09;4840834;29;20129;-66
2022/05/28 06:23:28;;;;;;;13.45;3.92;;;15.70;99.90;;;16.00;59.69;102183.28;4840567;29;20477;-67
2022/05/28 06:25:56;;;;;;;7.13;3.67;;;15.80;99.90;;;16.07;60.09;102190.34;4841762;29;20053;-67
2022/05/28 06:28:24;;;;;;;11.60;4.05;;;15.80;99.90;;;16.18;60.01;102197.41;4841776;29;20049;-67
2022/05/28 06:30:53;;;;;;;11.18;4.35;;;15.90;99.90;;;16.23;60.44;102192.94;4841450;29;20046;-66
2022/05/28 06:33:21;;;;;;;15.43;4.53;;;16.00;99.90;;;16.27;60.21;102188.47;4840351;29;20563;-67
2022/05/28 06:35:49;;;;;;;10.35;4.60;;;16.10;99.90;;;16.39;60.07;102191.06;4841559;29;20054;-66
2022/05/28 06:38:20;;;;;;;9.48;4.50;;;16.20;99.90;;;16.25;60.98;102192.94;4840722;29;20209;-67
2022/05/28 06:40:48;;;;;;;;;;;16.00;99.90;;;16.16;60.11;102195.66;4842004;29;20097;-67
2022/05/28 06:43:17;;;;;;;9.85;3.67;;;16.00;99.90;;;15.90;60.38;102198.47;4841299;29;20018;-66
2022/05/28 06:45:45;;;;;;;12.73;4.38;;;15.80;99.90;;;15.95;60.79;102191.31;4841317;29;20050;-67
2022/05/28 06:48:14;;;;;;;10.05;4.00;;;15.80;99.90;;;15.84;60.68;102174.47;4825086;29;20058;-67
2022/05/28 06:51:03;;;;;;;14.07;4.55;;;15.70;99.90;;;15.58;61.56;102196.84;4841196;29;20125;-66
2022/05/28 06:53:36;;;;;;;11.70;4.13;;;15.40;99.90;;;15.83;60.85;102196.69;4841153;29;20065;-68
2022/05/28 06:56:06;;;;;;;13.10;4.13;;;15.50;99.90;;;15.87;60.17;102184.25;4841412;29;20062;-67
2022/05/28 06:58:35;;;;;;;11.48;4.10;;;15.70;99.90;;;16.06;61.07;102197.50;4841206;29;20466;-67
2022/05/28 07:01:06;;;;;;;9.05;4.20;;;15.80;99.90;;;15.45;61.37;102203.13;4840932;29;20107;-68
2022/05/28 07:03:35;;;;;;;12.45;4.20;;;15.30;99.90;;;15.35;60.29;102128.41;4841579;29;20050;-67
2022/05/28 07:06:04;;;;;;;16.80;5.05;;;15.50;99.90;;;15.93;60.72;102205.59;4841289;29;20108;-67
2022/05/28 07:08:34;;;;;;;16.40;5.45;;;15.60;99.90;;;16.09;61.14;102210.81;4840928;29;20124;-66
2022/05/28 07:11:05;;;;;;;17.48;5.07;;;15.80;99.90;;;16.09;61.42;102209.91;4824973;29;20449;-67
2022/05/28 07:13:36;;;;;;;19.98;5.25;;;15.80;99.90;;;16.27;60.57;102213.38;4840966;29;20061;-67
2022/05/28 07:16:05;;;;;;;12.30;4.82;;;16.00;99.90;;;16.04;60.19;102225.09;4840897;29;20531;-67
2022/05/28 07:18:35;;;;;;;17.90;4.80;;;16.00;99.90;;;15.97;60.75;102193.97;4841434;29;20054;-67
2022/05/28 07:21:04;;;;;;;15.55;4.78;;;15.90;99.90;;;16.14;60.92;102209.00;4840890;29;20050;-66
2022/05/28 07:23:34;;;;;;;12.43;4.72;;;16.00;99.90;;;15.82;61.98;102215.41;4841371;29;20054;-66
2022/05/28 07:26:06;;;;;;;8.77;4.35;;;15.70;99.90;;;15.75;60.39;102216.31;4841081;29;20467;-66
2022/05/28 07:28:37;;;;;;;9.10;4.07;;;15.60;99.90;;;15.76;59.46;102210.09;4840890;29;20081;-66
2022/05/28 07:31:08;;;;;;;11.43;4.00;;;15.60;99.90;;;15.87;58.68;102211.81;4840762;29;20465;-66
2022/05/28 07:33:39;;;;;;;20.65;4.80;;;15.60;99.90;;;16.04;58.53;102219.75;4843740;29;20057;-66
2022/05/28 07:36:12;;;;;;;15.20;4.38;;;15.80;99.90;;;16.04;59.42;102223.31;4844826;29;20129;-67
2022/05/28 07:38:43;;;;;;;10.25;4.03;;;15.80;99.90;;;16.20;57.93;102224.13;4844514;29;20050;-66
2022/05/28 07:41:14;;;;;;;14.07;4.15;;;16.00;99.90;;;16.42;57.76;102219.50;4844484;29;20077;-67
2022/05/28 07:43:43;;;;;;;12.45;4.20;;;16.20;99.90;;;16.57;57.63;102225.66;4844626;29;20050;-67
2022/05/28 07:46:13;;;;;;;14.18;4.32;;;16.30;99.90;;;16.66;57.36;102232.75;4844892;29;20125;-67
2022/05/28 07:48:42;;;;;;;14.52;4.50;;;16.40;99.90;;;16.84;57.03;102232.59;4844560;29;20129;-67
2022/05/28 07:51:11;;;;;;;12.20;4.20;;;16.60;99.90;;;16.83;56.03;102229.03;4844588;29;20077;-67
2022/05/28 07:53:40;;;;;;;17.05;4.95;;;16.60;99.90;;;16.84;55.20;102233.47;4844387;29;20487;-67
2022/05/28 07:56:12;;;;;;;12.45;4.35;;;16.60;99.90;;;16.94;55.19;102223.59;4844411;29;20058;-66
2022/05/28 07:58:41;;;;;;;15.48;4.55;;;16.70;99.90;;;16.96;56.05;102222.69;4844590;29;20050;-67
2022/05/28 08:01:19;;;;;;;15.68;4.13;;;16.80;99.90;;;17.04;56.06;102227.94;4844394;29;20104;-67
2022/05/28 08:03:49;;;;;;;11.77;3.92;;;16.80;99.90;;;17.14;56.36;102235.88;4844491;29;20054;-67
2022/05/28 08:06:18;;;;;;;10.57;4.20;;;16.90;99.90;;;17.31;56.01;102226.78;4844496;29;20050;-67
2022/05/28 08:08:47;;;;;;;11.98;4.30;;;17.10;99.90;;;17.36;54.77;102223.19;4844057;29;20105;-68
2022/05/28 08:11:17;;;;;;;10.93;4.75;;;17.10;99.90;;;17.57;54.64;102227.44;4844430;29;20571;-67
2022/05/28 08:13:46;;;;;;;16.00;4.57;;;17.30;99.90;;;17.55;53.83;102230.16;4844623;29;20046;-68
2022/05/28 08:16:15;;;;;;;13.45;3.97;;;17.40;99.90;;;17.31;54.11;102230.34;4844177;29;20496;-67
2022/05/28 08:18:44;;;;;;;13.23;4.50;;;17.10;99.90;;;17.17;55.03;102226.06;4844295;29;20069;-67
2022/05/28 08:23:59;;;;;;;17.60;4.88;;;17.00;99.90;;;17.24;55.64;102223.31;4843962;29;20045;-67
2022/05/28 08:26:29;;;;;;;16.17;4.55;;;17.00;99.90;;;17.15;55.54;102228.72;4843662;29;20042;-67
2022/05/28 08:28:58;;;;;;;13.23;4.38;;;17.00;99.90;;;17.04;56.49;102225.28;4843651;29;20045;-67
2022/05/28 08:31:26;;;;;;;20.08;4.97;;;16.80;99.90;;;17.15;55.91;102224.28;4843599;29;20516;-68
2022/05/28 08:33:55;;;;;;;13.45;4.80;;;16.90;99.90;;;17.22;55.24;102219.75;4843377;29;20481;-67
2022/05/28 08:36:25;;;;;;;14.85;4.18;;;17.00;99.90;;;17.06;55.55;102219.03;4843544;29;20046;-68
2022/05/28 08:38:53;;;;;;;18.58;5.25;;;16.90;99.90;;;16.84;56.33;102220.09;4843492;29;20073;-68
2022/05/28 08:41:25;;;;;;;13.65;4.68;;;16.60;99.90;;;16.43;56.17;102218.63;4843254;29;20081;-67
2022/05/28 08:44:02;;;;;;;13.05;4.72;;;16.30;99.90;;;16.60;57.57;102223.00;4842897;29;20046;-69
2022/05/28 08:46:36;;;;;;;13.70;4.68;;;16.30;99.90;;;16.97;56.86;102224.47;4843345;29;20134;-70
2022/05/28 08:49:10;;;;;;;16.92;4.40;;;16.60;99.90;;;17.03;56.70;102231.53;4843434;29;20053;-68
2022/05/28 08:51:46;;;;;;;13.50;4.70;;;16.80;99.90;;;17.22;56.17;102233.13;4843122;29;20056;-68
2022/05/28 08:54:24;;;;;;;14.68;4.90;;;16.90;99.90;;;17.28;55.29;102216.13;4843481;29;20149;-68
2022/05/28 08:56:57;;;;;;;13.23;4.10;;;17.00;99.90;;;17.39;55.24;102238.31;4843500;29;20110;-67
2022/05/28 08:59:32;;;;;;;19.38;4.30;;;17.20;99.90;;;17.45;54.92;102232.88;4843660;29;20057;-68
2022/05/28 09:02:07;;;;;;;17.98;4.55;;;17.20;99.90;;;17.38;54.98;102231.19;4843344;29;20090;-67
2022/05/28 09:04:40;;;;;;;12.13;4.00;;;17.20;99.90;;;17.17;55.18;102239.44;4843159;29;20106;-67
2022/05/28 09:07:13;;;;;;;17.35;5.00;;;17.10;99.90;;;16.82;56.86;102205.88;4842989;29;20084;-67
2022/05/28 09:09:48;;;;;;;22.15;5.57;;;16.90;99.90;;;17.07;57.24;102235.97;4842822;29;20046;-68
2022/05/28 09:12:22;;;;;;;18.00;5.18;;;16.80;99.90;;;17.23;56.06;102245.59;4843496;29;20117;-67
2022/05/28 09:14:52;;;;;;;21.30;5.35;;;17.00;99.90;;;17.44;55.56;102241.84;4842789;29;20053;-68
2022/05/28 09:17:27;;;;;;;15.83;5.07;;;17.10;99.90;;;17.80;54.67;102228.06;4842750;29;20090;-67
2022/05/28 09:19:59;;;;;;;14.35;4.85;;;17.50;99.90;;;18.02;53.11;102248.31;4842591;29;20401;-68
2022/05/28 09:22:27;;;;;;;13.75;4.47;;;17.80;99.90;;;17.94;51.99;102239.50;4842555;29;20400;-69
2022/05/28 09:24:56;;;;;;;16.35;4.72;;;17.80;99.90;;;17.94;52.60;102239.50;4842596;29;20057;-68
2022/05/28 09:27:33;;;;;;;11.20;5.30;;;17.70;99.90;;;17.35;53.20;102237.44;4842626;29;20133;-68
2022/05/28 09:30:11;;;;;;;12.70;4.32;;;17.30;99.90;;;17.14;52.87;102246.59;4842442;29;20049;-68
2022/05/28 09:32:56;;;;;;;12.15;4.80;;;17.00;99.90;;;17.29;53.31;102242.84;4842422;29;20046;-68
2022/05/28 09:35:39;;;;;;;12.00;4.32;;;16.90;99.90;;;17.55;53.00;102237.28;4843071;29;20384;-68
2022/05/28 09:38:12;;;;;;;13.98;4.55;;;17.20;99.90;;;17.68;51.24;102241.56;4843592;29;20053;-68
2022/05/28 09:40:48;;;;;;;14.40;4.28;;;17.50;99.90;;;17.75;50.36;102225.44;4843685;29;20090;-68
2022/05/28 09:43:50;;;;;;;13.63;5.00;;;17.60;99.90;;;17.90;50.41;102240.44;4843033;29;20050;-67
2022/05/28 09:46:28;;;;;;;14.30;4.53;;;17.60;99.90;;;18.17;51.25;102228.47;4834820;29;20058;-67
2022/05/28 09:49:02;;;;;;;13.68;4.95;;;17.90;99.90;;;18.31;51.43;102227.34;4843626;29;20428;-68
2022/05/28 09:51:34;;;;;;;11.57;4.05;;;18.10;99.90;;;17.95;49.68;102231.44;4843088;29;20046;-67
2022/05/28 09:54:17;;;;;;;13.65;4.78;;;17.90;99.90;;;17.67;51.40;102239.81;4843233;29;20046;-67
2022/05/28 09:56:56;;;;;;;17.60;5.10;;;17.50;99.90;;;18.15;50.60;102239.19;4843340;29;20062;-68
2022/05/28 09:59:34;;;;;;;16.75;5.05;;;17.80;99.90;;;18.44;49.81;102239.72;4843148;29;20113;-68
2022/05/28 10:02:13;;;;;;;20.33;4.63;;;18.10;99.90;;;18.71;49.62;102233.94;4843369;29;20121;-68
2022/05/28 10:04:49;;;;;;;23.27;5.22;;;18.40;99.90;;;18.83;49.48;102232.84;4843217;29;20057;-68
2022/05/28 10:07:30;;;;;;;12.40;4.75;;;18.60;99.90;;;18.24;49.18;102241.75;4842994;29;20129;-68
2022/05/28 10:09:59;;;;;;;13.30;4.25;;;18.30;99.90;;;18.45;49.73;102233.44;4842799;29;20091;-67
2022/05/28 10:12:31;;;;;;;11.80;4.75;;;18.20;99.90;;;18.52;50.07;102237.81;4842890;29;20413;-67
2022/05/28 10:15:03;;;;;;;14.43;4.43;;;18.30;99.90;;;17.88;49.81;102234.22;4842895;29;20077;-67
2022/05/28 10:17:34;;;;;;;11.32;4.38;;;17.90;99.90;;;17.77;51.25;102228.06;4842885;29;20050;-67
2022/05/28 10:20:13;;;;;;;9.60;4.10;;;17.60;99.90;;;17.86;48.44;102231.56;4842737;29;20137;-67
2022/05/28 10:22:41;;;;;;;11.25;3.88;;;17.60;99.90;;;18.08;49.14;102226.78;4842749;29;20134;-67
2022/05/28 10:25:28;;;;;;;9.95;3.95;;;17.80;99.90;;;18.26;48.54;102225.66;4841653;29;20110;-67
2022/05/28 10:27:57;;;;;;;11.63;4.80;;;18.00;99.90;;;18.04;48.95;102225.94;4842116;29;20141;-67
2022/05/28 10:30:38;;;;;;;10.57;4.50;;;17.80;99.90;;;18.25;48.05;102223.88;4825282;29;20475;-67